createdAt,value
2019-04-29T00:04:41.365Z,16.70
2019-04-29T00:09:47.998Z,15.23
2019-04-29T00:15:11.755Z,15.32
2019-04-29T00:20:37.415Z,12.63
2019-04-29T00:25:44.830Z,13.00
2019-04-29T00:30:51.740Z,13.32
2019-04-29T00:35:58.461Z,14.45
2019-04-29T00:41:42.449Z,18.70
2019-04-29T00:46:49.659Z,17.75
2019-04-29T00:51:58.322Z,16.07
2019-04-29T00:57:05.319Z,14.20
2019-04-29T01:02:12.030Z,17.35
2019-04-29T01:07:18.661Z,17.07
2019-04-29T01:12:25.301Z,17.92
2019-04-29T01:17:31.841Z,13.65
2019-04-29T01:22:38.447Z,19.70
2019-04-29T01:27:51.854Z,16.90
2019-04-29T01:32:58.577Z,19.07
2019-04-29T01:38:05.283Z,15.95
2019-04-29T01:43:11.888Z,14.73
2019-04-29T01:48:18.380Z,14.45
2019-04-29T01:53:24.844Z,16.95
2019-04-29T01:58:31.359Z,17.02
2019-04-29T02:03:37.982Z,18.02
2019-04-29T02:08:44.705Z,16.65
2019-04-29T02:13:51.302Z,21.10
2019-04-29T02:18:57.838Z,22.82
2019-04-29T02:24:12.326Z,27.07
2019-04-29T02:29:18.921Z,23.05
2019-04-29T02:34:25.485Z,25.85
2019-04-29T02:39:43.448Z,22.62
2019-04-29T02:44:51.215Z,20.97
2019-04-29T02:49:57.827Z,24.43
2019-04-29T02:55:06.356Z,19.15
2019-04-29T03:00:32.268Z,20.37
2019-04-29T03:05:45.780Z,23.95
2019-04-29T03:10:52.396Z,19.35
2019-04-29T03:15:59.513Z,17.67
2019-04-29T03:21:12.658Z,23.73
2019-04-29T03:26:19.258Z,26.65
2019-04-29T03:31:26.000Z,24.57
2019-04-29T03:36:32.685Z,26.45
2019-04-29T03:41:39.144Z,28.40
2019-04-29T03:46:45.915Z,28.57
2019-04-29T03:51:52.526Z,25.72
2019-04-29T03:56:59.199Z,24.32
2019-04-29T04:02:13.260Z,26.95
2019-04-29T04:07:37.691Z,29.55
2019-04-29T04:12:44.317Z,25.00
2019-04-29T04:17:57.716Z,27.73
2019-04-29T04:23:04.626Z,20.17
2019-04-29T04:28:11.210Z,25.72
2019-04-29T04:33:17.776Z,26.10
2019-04-29T04:38:24.357Z,25.37
2019-04-29T04:43:30.809Z,24.52
2019-04-29T04:48:37.273Z,23.15
2019-04-29T04:53:43.802Z,22.93
2019-04-29T04:58:50.377Z,23.15
2019-04-29T05:03:57.049Z,23.27
2019-04-29T05:09:05.404Z,20.97
2019-04-29T05:14:12.269Z,20.57
2019-04-29T05:19:18.723Z,17.70
2019-04-29T05:24:25.368Z,20.85
2019-04-29T05:29:31.882Z,21.93
2019-04-29T05:34:41.825Z,20.35
2019-04-29T05:39:48.566Z,20.00
2019-04-29T05:45:04.910Z,20.27
2019-04-29T05:50:29.443Z,19.42
2019-04-29T05:55:36.077Z,18.05
2019-04-29T06:00:53.370Z,19.80
2019-04-29T06:06:00.061Z,20.90
2019-04-29T06:11:06.691Z,25.12
2019-04-29T06:16:16.113Z,19.98
2019-04-29T06:21:22.682Z,19.32
2019-04-29T06:26:29.332Z,19.95
2019-04-29T06:31:36.050Z,15.70
2019-04-29T06:36:42.746Z,20.35
2019-04-29T06:41:49.367Z,17.48
2019-04-29T06:46:56.314Z,17.50
2019-04-29T06:52:02.901Z,15.43
2019-04-29T06:57:09.423Z,16.40
2019-04-29T07:02:16.190Z,15.68
2019-04-29T07:07:22.886Z,16.20
2019-04-29T07:12:29.496Z,17.87
2019-04-29T07:17:36.498Z,16.77
2019-04-29T07:22:44.429Z,22.00
2019-04-29T07:27:50.867Z,18.77
2019-04-29T07:32:57.478Z,18.45
2019-04-29T07:38:04.445Z,17.65
2019-04-29T07:43:12.285Z,18.45
2019-04-29T07:48:18.811Z,21.02
2019-04-29T07:53:34.657Z,19.00
2019-04-29T07:58:33.728Z,16.87
2019-04-29T08:03:40.528Z,21.70
2019-04-29T08:08:55.496Z,17.10
2019-04-29T08:14:00.580Z,17.67
2019-04-29T08:19:07.249Z,21.35
2019-04-29T08:24:15.788Z,27.73
2019-04-29T08:29:22.059Z,18.00
2019-04-29T08:34:28.684Z,18.48
2019-04-29T08:39:35.169Z,22.50
2019-04-29T08:45:02.183Z,20.72
2019-04-29T08:50:10.035Z,22.55
2019-04-29T08:55:19.319Z,21.42
2019-04-29T09:00:25.105Z,20.70
2019-04-29T09:05:31.708Z,24.10
2019-04-29T09:10:38.366Z,21.57
2019-04-29T09:15:45.000Z,23.38
2019-04-29T09:20:51.440Z,27.22
2019-04-29T09:26:29.083Z,25.82
2019-04-29T09:31:35.695Z,24.70
2019-04-29T09:36:43.887Z,25.32
2019-04-29T09:42:03.251Z,25.32
2019-04-29T09:47:10.834Z,21.17
2019-04-29T09:52:17.528Z,21.23
2019-04-29T09:57:24.145Z,25.37
2019-04-29T10:02:36.778Z,21.77
2019-04-29T10:07:43.685Z,24.35
2019-04-29T10:12:50.309Z,22.62
2019-04-29T10:18:12.886Z,21.57
2019-04-29T10:23:19.435Z,20.25
2019-04-29T10:28:25.894Z,22.07
2019-04-29T10:33:32.813Z,23.87
2019-04-29T10:38:40.591Z,21.10
2019-04-29T10:44:16.020Z,20.90
2019-04-29T10:49:30.218Z,24.40
2019-04-29T10:54:36.924Z,22.82
2019-04-29T10:59:46.275Z,26.65
2019-04-29T11:04:56.779Z,25.70
2019-04-29T11:10:09.207Z,23.30
2019-04-29T11:15:18.226Z,19.42
2019-04-29T11:20:25.151Z,19.80
2019-04-29T11:25:51.323Z,19.95
2019-04-29T11:30:58.665Z,21.62
2019-04-29T11:36:10.462Z,22.37
2019-04-29T11:41:19.722Z,20.40
2019-04-29T11:46:25.340Z,17.77
2019-04-29T11:52:07.913Z,15.50
2019-04-29T11:56:53.236Z,15.90
2019-04-29T12:02:14.140Z,11.25
2019-04-29T12:07:21.328Z,12.03
2019-04-29T12:12:28.140Z,12.33
2019-04-29T12:17:50.370Z,13.68
2019-04-29T12:22:57.133Z,11.93
2019-04-29T12:28:18.088Z,11.43
2019-04-29T12:33:27.822Z,11.40
2019-04-29T12:38:52.189Z,11.08
2019-04-29T12:44:05.755Z,13.70
2019-04-29T12:49:13.854Z,13.78
2019-04-29T12:54:20.831Z,10.95
2019-04-29T12:59:30.571Z,12.47
2019-04-29T13:05:05.019Z,13.30
2019-04-29T13:10:20.758Z,12.60
2019-04-29T13:15:59.097Z,13.48
2019-04-29T13:21:10.236Z,10.18
2019-04-29T13:26:27.115Z,12.23
2019-04-29T13:31:37.507Z,13.95
2019-04-29T13:36:31.308Z,9.50
2019-04-29T13:41:57.277Z,9.90
2019-04-29T13:47:04.252Z,12.28
2019-04-29T13:52:11.257Z,12.47
2019-04-29T13:57:18.098Z,12.35
2019-04-29T14:02:36.870Z,11.75
2019-04-29T14:07:43.720Z,10.23
2019-04-29T14:13:00.840Z,11.83
2019-04-29T14:17:58.557Z,9.48
2019-04-29T14:23:05.544Z,9.33
2019-04-29T14:28:12.136Z,9.55
2019-04-29T14:33:24.231Z,11.30
2019-04-29T14:38:28.944Z,11.78
2019-04-29T14:43:55.034Z,11.78
2019-04-29T14:49:06.244Z,14.35
2019-04-29T14:54:12.909Z,15.98
2019-04-29T14:59:19.778Z,15.50
2019-04-29T15:04:29.625Z,16.60
2019-04-29T15:09:46.477Z,21.37
2019-04-29T15:15:02.658Z,28.70
2019-04-29T15:20:19.505Z,30.00
2019-04-29T15:25:26.223Z,28.12
2019-04-29T15:30:36.726Z,38.38
2019-04-29T15:35:41.121Z,48.73
2019-04-29T15:40:47.566Z,50.30
2019-04-29T15:45:54.176Z,54.55
2019-04-29T15:51:00.848Z,68.20
2019-04-29T15:56:27.052Z,48.95
2019-04-29T16:01:17.967Z,45.95
2019-04-29T16:06:41.808Z,49.80
2019-04-29T16:12:14.519Z,51.58
2019-04-29T16:17:20.714Z,43.98
2019-04-29T16:22:27.604Z,52.73
2019-04-29T16:27:34.136Z,52.85
2019-04-29T16:32:43.791Z,42.33
2019-04-29T16:37:50.449Z,43.33
2019-04-29T16:43:12.441Z,38.83
2019-04-29T16:48:19.172Z,44.90
2019-04-29T16:53:25.708Z,48.35
2019-04-29T16:58:32.388Z,42.23
2019-04-29T17:03:39.426Z,41.53
2019-04-29T17:09:23.469Z,43.92
2019-04-29T17:14:30.216Z,47.78
2019-04-29T17:19:36.907Z,41.83
2019-04-29T17:24:43.608Z,43.83
2019-04-29T17:30:16.003Z,42.35
2019-04-29T17:40:32.007Z,36.85
2019-04-29T17:45:45.915Z,41.50
2019-04-29T17:50:56.498Z,47.25
2019-04-29T17:56:17.515Z,47.30
2019-04-29T18:01:36.611Z,38.30
2019-04-29T18:06:49.997Z,46.98
2019-04-29T18:11:57.849Z,40.58
2019-04-29T18:17:06.434Z,49.83
2019-04-29T18:22:38.093Z,55.70
2019-04-29T18:27:49.124Z,45.00
2019-04-29T18:32:55.121Z,40.10
2019-04-29T18:38:07.504Z,50.48
2019-04-29T18:43:15.027Z,53.95
2019-04-29T18:48:21.754Z,51.92
2019-04-29T18:53:28.351Z,62.27
2019-04-29T18:58:35.602Z,64.20
2019-04-29T19:04:10.156Z,71.80
2019-04-29T19:09:19.845Z,79.60
2019-04-29T19:14:26.846Z,70.08
2019-04-29T19:19:35.830Z,64.47
2019-04-29T19:24:44.167Z,73.40
2019-04-29T19:29:49.857Z,69.37
2019-04-29T19:34:58.247Z,90.57
2019-04-29T19:40:08.055Z,76.35
2019-04-29T19:45:15.517Z,93.80
2019-04-29T19:50:22.322Z,76.90
2019-04-29T19:55:33.178Z,69.37
2019-04-29T20:00:39.128Z,61.70
2019-04-29T20:05:50.412Z,60.17
2019-04-29T20:11:10.918Z,61.53
2019-04-29T20:16:44.660Z,60.85
2019-04-29T20:21:48.549Z,85.25
2019-04-29T20:26:55.196Z,117.62
2019-04-29T20:32:01.954Z,112.35
2019-04-29T20:37:10.705Z,111.05
2019-04-29T20:42:17.229Z,86.37
2019-04-29T20:47:37.052Z,82.78
2019-04-29T20:52:42.419Z,84.60
2019-04-29T20:57:52.510Z,74.45
2019-04-29T21:02:57.418Z,70.60
2019-04-29T21:08:13.846Z,70.28
2019-04-29T21:13:20.681Z,74.42
2019-04-29T21:18:27.391Z,69.15
2019-04-29T21:23:35.535Z,66.25
2019-04-29T21:28:44.595Z,62.35
2019-04-29T21:33:54.307Z,57.43
2019-04-29T21:39:10.853Z,61.80
2019-04-29T21:44:19.122Z,57.80
2019-04-29T21:49:25.851Z,57.75
2019-04-29T21:54:32.451Z,57.90
2019-04-29T21:59:41.490Z,59.33
2019-04-29T22:04:47.787Z,56.05
2019-04-29T22:09:55.711Z,54.50
2019-04-29T22:15:02.475Z,54.05
2019-04-29T22:20:10.998Z,54.60
2019-04-29T22:25:18.683Z,47.75
2019-04-29T22:30:26.558Z,44.00
2019-04-29T22:35:37.289Z,40.40
2019-04-29T22:40:42.941Z,34.90
2019-04-29T22:45:49.783Z,37.03
2019-04-29T22:50:56.318Z,29.98
2019-04-29T22:56:02.844Z,30.95
2019-04-29T23:01:09.811Z,31.07
2019-04-29T23:06:16.477Z,33.53
2019-04-29T23:11:23.034Z,31.62
2019-04-29T23:16:31.519Z,38.10
2019-04-29T23:22:06.105Z,36.33
2019-04-29T23:27:16.317Z,32.08
2019-04-29T23:32:21.255Z,33.88
2019-04-29T23:37:29.459Z,34.55
2019-04-29T23:42:36.316Z,38.25
2019-04-29T23:47:46.833Z,39.00
2019-04-29T23:52:52.038Z,34.98
2019-04-29T23:58:11.426Z,31.27
